sensor_id;sensor_type;location;lat;lon;timestamp;P1;durP1;ratioP1;P2;durP2;ratioP2
17965;SDS011;9108;53.204;10.424;2022-11-30T00:01:32;118.00;;;40.58;;
17965;SDS011;9108;53.204;10.424;2022-11-30T00:03:59;125.85;;;40.88;;
17965;SDS011;9108;53.204;10.424;2022-11-30T00:06:26;122.70;;;41.08;;
17965;SDS011;9108;53.204;10.424;2022-11-30T00:08:55;124.95;;;41.42;;
17965;SDS011;9108;53.204;10.424;2022-11-30T00:11:23;126.53;;;42.27;;
17965;SDS011;9108;53.204;10.424;2022-11-30T00:13:51;129.93;;;41.72;;
17965;SDS011;9108;53.204;10.424;2022-11-30T00:16:18;126.85;;;42.83;;
17965;SDS011;9108;53.204;10.424;2022-11-30T00:18:45;135.55;;;42.80;;
17965;SDS011;9108;53.204;10.424;2022-11-30T00:21:13;128.40;;;41.95;;
17965;SDS011;9108;53.204;10.424;2022-11-30T00:23:41;128.88;;;43.25;;
17965;SDS011;9108;53.204;10.424;2022-11-30T00:26:10;131.63;;;42.55;;
17965;SDS011;9108;53.204;10.424;2022-11-30T00:28:38;122.55;;;41.28;;
17965;SDS011;9108;53.204;10.424;2022-11-30T00:31:06;137.38;;;43.97;;
17965;SDS011;9108;53.204;10.424;2022-11-30T00:33:34;128.82;;;43.65;;
17965;SDS011;9108;53.204;10.424;2022-11-30T00:36:02;124.60;;;41.78;;
17965;SDS011;9108;53.204;10.424;2022-11-30T00:38:30;119.57;;;41.33;;
17965;SDS011;9108;53.204;10.424;2022-11-30T00:40:58;125.43;;;41.30;;
17965;SDS011;9108;53.204;10.424;2022-11-30T00:43:27;132.32;;;43.15;;
17965;SDS011;9108;53.204;10.424;2022-11-30T00:45:54;127.97;;;42.77;;
17965;SDS011;9108;53.204;10.424;2022-11-30T00:48:21;146.20;;;44.10;;
17965;SDS011;9108;53.204;10.424;2022-11-30T00:50:49;140.23;;;44.20;;
17965;SDS011;9108;53.204;10.424;2022-11-30T00:53:16;139.65;;;45.03;;
17965;SDS011;9108;53.204;10.424;2022-11-30T00:55:44;132.40;;;43.72;;
17965;SDS011;9108;53.204;10.424;2022-11-30T00:58:11;143.63;;;44.53;;
17965;SDS011;9108;53.204;10.424;2022-11-30T01:00:40;143.50;;;44.15;;
17965;SDS011;9108;53.204;10.424;2022-11-30T01:03:08;154.13;;;46.25;;
17965;SDS011;9108;53.204;10.424;2022-11-30T01:05:35;142.70;;;45.53;;
17965;SDS011;9108;53.204;10.424;2022-11-30T01:08:03;139.50;;;44.17;;
17965;SDS011;9108;53.204;10.424;2022-11-30T01:10:31;150.70;;;45.35;;
17965;SDS011;9108;53.204;10.424;2022-11-30T01:12:58;149.88;;;44.75;;
17965;SDS011;9108;53.204;10.424;2022-11-30T01:15:26;142.87;;;43.90;;
17965;SDS011;9108;53.204;10.424;2022-11-30T01:17:54;147.20;;;45.33;;
17965;SDS011;9108;53.204;10.424;2022-11-30T01:20:21;153.38;;;46.05;;
17965;SDS011;9108;53.204;10.424;2022-11-30T01:22:49;146.70;;;44.35;;
17965;SDS011;9108;53.204;10.424;2022-11-30T01:25:16;143.03;;;45.97;;
17965;SDS011;9108;53.204;10.424;2022-11-30T01:27:45;148.53;;;44.93;;
17965;SDS011;9108;53.204;10.424;2022-11-30T01:30:14;152.30;;;46.47;;
17965;SDS011;9108;53.204;10.424;2022-11-30T01:32:41;151.40;;;45.25;;
17965;SDS011;9108;53.204;10.424;2022-11-30T01:35:09;157.75;;;47.10;;
17965;SDS011;9108;53.204;10.424;2022-11-30T01:37:37;159.85;;;46.65;;
17965;SDS011;9108;53.204;10.424;2022-11-30T01:40:05;158.73;;;46.42;;
17965;SDS011;9108;53.204;10.424;2022-11-30T01:42:32;157.02;;;45.78;;
17965;SDS011;9108;53.204;10.424;2022-11-30T01:45:02;154.50;;;46.65;;
17965;SDS011;9108;53.204;10.424;2022-11-30T01:47:31;143.60;;;44.78;;
17965;SDS011;9108;53.204;10.424;2022-11-30T01:50:02;154.73;;;46.22;;
17965;SDS011;9108;53.204;10.424;2022-11-30T01:52:32;161.00;;;47.13;;
17965;SDS011;9108;53.204;10.424;2022-11-30T01:55:03;154.15;;;46.67;;
17965;SDS011;9108;53.204;10.424;2022-11-30T01:57:33;162.13;;;46.95;;
17965;SDS011;9108;53.204;10.424;2022-11-30T02:00:04;151.57;;;46.50;;
17965;SDS011;9108;53.204;10.424;2022-11-30T02:02:33;160.82;;;46.22;;
17965;SDS011;9108;53.204;10.424;2022-11-30T02:05:02;158.10;;;46.83;;
17965;SDS011;9108;53.204;10.424;2022-11-30T02:07:31;160.65;;;46.78;;
17965;SDS011;9108;53.204;10.424;2022-11-30T02:09:58;162.27;;;46.67;;
17965;SDS011;9108;53.204;10.424;2022-11-30T02:12:27;161.25;;;45.88;;
17965;SDS011;9108;53.204;10.424;2022-11-30T02:14:58;157.48;;;46.58;;
17965;SDS011;9108;53.204;10.424;2022-11-30T02:17:27;158.63;;;46.13;;
17965;SDS011;9108;53.204;10.424;2022-11-30T02:20:07;163.02;;;46.95;;
17965;SDS011;9108;53.204;10.424;2022-11-30T02:22:45;172.85;;;46.85;;
17965;SDS011;9108;53.204;10.424;2022-11-30T02:25:15;163.73;;;47.58;;
17965;SDS011;9108;53.204;10.424;2022-11-30T02:27:51;163.30;;;46.20;;
17965;SDS011;9108;53.204;10.424;2022-11-30T02:30:23;163.05;;;46.92;;
17965;SDS011;9108;53.204;10.424;2022-11-30T02:32:52;162.38;;;47.15;;
17965;SDS011;9108;53.204;10.424;2022-11-30T02:35:23;165.27;;;46.50;;
17965;SDS011;9108;53.204;10.424;2022-11-30T02:37:51;164.40;;;47.38;;
17965;SDS011;9108;53.204;10.424;2022-11-30T02:40:19;169.43;;;47.83;;
17965;SDS011;9108;53.204;10.424;2022-11-30T02:42:46;168.30;;;48.25;;
17965;SDS011;9108;53.204;10.424;2022-11-30T02:45:14;165.40;;;46.40;;
17965;SDS011;9108;53.204;10.424;2022-11-30T02:47:44;175.47;;;47.77;;
17965;SDS011;9108;53.204;10.424;2022-11-30T02:50:13;161.35;;;46.75;;
17965;SDS011;9108;53.204;10.424;2022-11-30T02:52:41;169.32;;;47.65;;
17965;SDS011;9108;53.204;10.424;2022-11-30T02:55:09;170.55;;;46.92;;
17965;SDS011;9108;53.204;10.424;2022-11-30T02:57:37;167.35;;;47.20;;
17965;SDS011;9108;53.204;10.424;2022-11-30T03:00:05;166.88;;;47.67;;
17965;SDS011;9108;53.204;10.424;2022-11-30T03:02:33;152.43;;;46.20;;
17965;SDS011;9108;53.204;10.424;2022-11-30T03:05:01;162.50;;;46.10;;
17965;SDS011;9108;53.204;10.424;2022-11-30T03:07:29;160.07;;;45.75;;
17965;SDS011;9108;53.204;10.424;2022-11-30T03:09:57;165.75;;;47.08;;
17965;SDS011;9108;53.204;10.424;2022-11-30T03:12:24;161.48;;;47.08;;
17965;SDS011;9108;53.204;10.424;2022-11-30T03:14:52;159.15;;;44.25;;
17965;SDS011;9108;53.204;10.424;2022-11-30T03:17:19;170.35;;;47.65;;
17965;SDS011;9108;53.204;10.424;2022-11-30T03:19:46;164.65;;;47.28;;
17965;SDS011;9108;53.204;10.424;2022-11-30T03:22:15;156.98;;;46.85;;
17965;SDS011;9108;53.204;10.424;2022-11-30T03:24:42;162.13;;;47.10;;
17965;SDS011;9108;53.204;10.424;2022-11-30T03:27:09;168.20;;;47.22;;
17965;SDS011;9108;53.204;10.424;2022-11-30T03:29:36;168.00;;;47.50;;
17965;SDS011;9108;53.204;10.424;2022-11-30T03:32:04;171.70;;;48.70;;
17965;SDS011;9108;53.204;10.424;2022-11-30T03:34:31;170.30;;;48.55;;
17965;SDS011;9108;53.204;10.424;2022-11-30T03:36:58;177.77;;;48.33;;
17965;SDS011;9108;53.204;10.424;2022-11-30T03:39:27;179.68;;;49.38;;
17965;SDS011;9108;53.204;10.424;2022-11-30T03:41:54;168.52;;;47.30;;
17965;SDS011;9108;53.204;10.424;2022-11-30T03:44:21;174.85;;;48.30;;
17965;SDS011;9108;53.204;10.424;2022-11-30T03:46:48;174.15;;;48.05;;
17965;SDS011;9108;53.204;10.424;2022-11-30T03:49:15;173.88;;;48.47;;
17965;SDS011;9108;53.204;10.424;2022-11-30T03:51:42;166.80;;;47.28;;
17965;SDS011;9108;53.204;10.424;2022-11-30T03:54:09;178.13;;;49.05;;
17965;SDS011;9108;53.204;10.424;2022-11-30T03:56:38;179.77;;;48.15;;
17965;SDS011;9108;53.204;10.424;2022-11-30T03:59:05;167.10;;;46.72;;
17965;SDS011;9108;53.204;10.424;2022-11-30T04:01:32;177.48;;;48.13;;
17965;SDS011;9108;53.204;10.424;2022-11-30T04:04:00;168.77;;;46.85;;
17965;SDS011;9108;53.204;10.424;2022-11-30T04:06:28;172.10;;;47.60;;
17965;SDS011;9108;53.204;10.424;2022-11-30T04:08:55;175.20;;;48.42;;
17965;SDS011;9108;53.204;10.424;2022-11-30T04:11:22;178.85;;;48.22;;
17965;SDS011;9108;53.204;10.424;2022-11-30T04:13:51;175.98;;;47.13;;
17965;SDS011;9108;53.204;10.424;2022-11-30T04:16:18;167.88;;;46.67;;
17965;SDS011;9108;53.204;10.424;2022-11-30T04:18:45;170.13;;;46.88;;
17965;SDS011;9108;53.204;10.424;2022-11-30T04:21:12;163.57;;;45.67;;
17965;SDS011;9108;53.204;10.424;2022-11-30T04:23:39;174.98;;;47.53;;
17965;SDS011;9108;53.204;10.424;2022-11-30T04:26:07;160.77;;;45.30;;
17965;SDS011;9108;53.204;10.424;2022-11-30T04:28:34;161.90;;;44.83;;
17965;SDS011;9108;53.204;10.424;2022-11-30T04:31:03;169.98;;;46.20;;
17965;SDS011;9108;53.204;10.424;2022-11-30T04:33:30;171.02;;;46.35;;
17965;SDS011;9108;53.204;10.424;2022-11-30T04:35:58;170.57;;;46.35;;
17965;SDS011;9108;53.204;10.424;2022-11-30T04:38:26;170.93;;;47.13;;
17965;SDS011;9108;53.204;10.424;2022-11-30T04:40:53;166.13;;;45.33;;
17965;SDS011;9108;53.204;10.424;2022-11-30T04:43:21;173.60;;;46.00;;
17965;SDS011;9108;53.204;10.424;2022-11-30T04:45:48;169.10;;;45.78;;
17965;SDS011;9108;53.204;10.424;2022-11-30T04:48:17;166.55;;;46.08;;
17965;SDS011;9108;53.204;10.424;2022-11-30T04:50:44;165.82;;;45.25;;
17965;SDS011;9108;53.204;10.424;2022-11-30T04:53:11;169.55;;;46.08;;
17965;SDS011;9108;53.204;10.424;2022-11-30T04:55:38;172.63;;;46.28;;
17965;SDS011;9108;53.204;10.424;2022-11-30T04:58:06;158.80;;;45.03;;
17965;SDS011;9108;53.204;10.424;2022-11-30T05:00:33;173.75;;;45.92;;
17965;SDS011;9108;53.204;10.424;2022-11-30T05:03:01;166.40;;;46.15;;
17965;SDS011;9108;53.204;10.424;2022-11-30T05:05:29;173.20;;;46.43;;
17965;SDS011;9108;53.204;10.424;2022-11-30T05:07:57;169.18;;;45.72;;
17965;SDS011;9108;53.204;10.424;2022-11-30T05:10:24;166.02;;;45.67;;
17965;SDS011;9108;53.204;10.424;2022-11-30T05:12:52;167.93;;;45.80;;
17965;SDS011;9108;53.204;10.424;2022-11-30T05:15:19;161.60;;;45.33;;
17965;SDS011;9108;53.204;10.424;2022-11-30T05:17:46;162.00;;;44.58;;
17965;SDS011;9108;53.204;10.424;2022-11-30T05:20:13;161.10;;;45.35;;
17965;SDS011;9108;53.204;10.424;2022-11-30T05:22:42;166.32;;;44.92;;
17965;SDS011;9108;53.204;10.424;2022-11-30T05:25:09;168.63;;;45.58;;
17965;SDS011;9108;53.204;10.424;2022-11-30T05:27:36;162.10;;;44.63;;
17965;SDS011;9108;53.204;10.424;2022-11-30T05:30:04;156.35;;;43.80;;
17965;SDS011;9108;53.204;10.424;2022-11-30T05:32:32;157.88;;;43.08;;
17965;SDS011;9108;53.204;10.424;2022-11-30T05:34:59;159.60;;;44.33;;
17965;SDS011;9108;53.204;10.424;2022-11-30T05:37:26;152.20;;;44.55;;
17965;SDS011;9108;53.204;10.424;2022-11-30T05:39:54;149.82;;;43.38;;
17965;SDS011;9108;53.204;10.424;2022-11-30T05:42:22;151.15;;;43.63;;
17965;SDS011;9108;53.204;10.424;2022-11-30T05:44:49;146.48;;;42.80;;
17965;SDS011;9108;53.204;10.424;2022-11-30T05:47:16;141.77;;;40.78;;
17965;SDS011;9108;53.204;10.424;2022-11-30T05:49:43;132.68;;;39.97;;
17965;SDS011;9108;53.204;10.424;2022-11-30T05:52:10;141.68;;;41.60;;
17965;SDS011;9108;53.204;10.424;2022-11-30T05:54:38;144.23;;;40.88;;
17965;SDS011;9108;53.204;10.424;2022-11-30T05:57:06;135.10;;;39.63;;
17965;SDS011;9108;53.204;10.424;2022-11-30T05:59:33;137.02;;;40.08;;
17965;SDS011;9108;53.204;10.424;2022-11-30T06:02:00;135.77;;;40.40;;
17965;SDS011;9108;53.204;10.424;2022-11-30T06:04:28;135.70;;;40.60;;
17965;SDS011;9108;53.204;10.424;2022-11-30T06:06:55;133.25;;;40.58;;
17965;SDS011;9108;53.204;10.424;2022-11-30T06:09:22;137.57;;;39.88;;
17965;SDS011;9108;53.204;10.424;2022-11-30T06:11:49;132.13;;;40.53;;
17965;SDS011;9108;53.204;10.424;2022-11-30T06:14:18;129.25;;;39.42;;
17965;SDS011;9108;53.204;10.424;2022-11-30T06:16:45;139.85;;;41.28;;
17965;SDS011;9108;53.204;10.424;2022-11-30T06:19:12;135.95;;;40.85;;
17965;SDS011;9108;53.204;10.424;2022-11-30T06:21:39;135.18;;;40.40;;
17965;SDS011;9108;53.204;10.424;2022-11-30T06:24:07;131.88;;;41.33;;
17965;SDS011;9108;53.204;10.424;2022-11-30T06:26:34;134.00;;;40.23;;
17965;SDS011;9108;53.204;10.424;2022-11-30T06:29:02;132.65;;;40.03;;
17965;SDS011;9108;53.204;10.424;2022-11-30T06:31:30;132.68;;;39.97;;
17965;SDS011;9108;53.204;10.424;2022-11-30T06:33:57;129.70;;;40.60;;
17965;SDS011;9108;53.204;10.424;2022-11-30T06:36:25;131.77;;;40.43;;
17965;SDS011;9108;53.204;10.424;2022-11-30T06:38:53;132.05;;;39.65;;
17965;SDS011;9108;53.204;10.424;2022-11-30T06:41:20;130.00;;;39.75;;
17965;SDS011;9108;53.204;10.424;2022-11-30T06:43:47;140.23;;;40.40;;
17965;SDS011;9108;53.204;10.424;2022-11-30T06:46:15;139.63;;;40.92;;
17965;SDS011;9108;53.204;10.424;2022-11-30T06:48:46;136.88;;;40.70;;
17965;SDS011;9108;53.204;10.424;2022-11-30T06:51:13;145.50;;;40.97;;
17965;SDS011;9108;53.204;10.424;2022-11-30T06:53:41;143.70;;;41.25;;
17965;SDS011;9108;53.204;10.424;2022-11-30T06:56:08;143.77;;;41.97;;
17965;SDS011;9108;53.204;10.424;2022-11-30T06:58:35;137.57;;;40.03;;
17965;SDS011;9108;53.204;10.424;2022-11-30T07:01:03;143.02;;;42.53;;
17965;SDS011;9108;53.204;10.424;2022-11-30T07:03:30;143.40;;;41.35;;
17965;SDS011;9108;53.204;10.424;2022-11-30T07:05:59;146.25;;;42.38;;
17965;SDS011;9108;53.204;10.424;2022-11-30T07:08:26;136.80;;;42.22;;
17965;SDS011;9108;53.204;10.424;2022-11-30T07:10:53;136.80;;;40.97;;
17965;SDS011;9108;53.204;10.424;2022-11-30T07:13:20;138.90;;;41.10;;
17965;SDS011;9108;53.204;10.424;2022-11-30T07:15:47;138.25;;;41.47;;
17965;SDS011;9108;53.204;10.424;2022-11-30T07:18:14;140.73;;;42.45;;
17965;SDS011;9108;53.204;10.424;2022-11-30T07:20:42;139.55;;;42.00;;
17965;SDS011;9108;53.204;10.424;2022-11-30T07:23:10;141.32;;;42.90;;
17965;SDS011;9108;53.204;10.424;2022-11-30T07:25:58;149.50;;;43.17;;
17965;SDS011;9108;53.204;10.424;2022-11-30T07:28:31;147.15;;;42.63;;
17965;SDS011;9108;53.204;10.424;2022-11-30T07:30:58;152.77;;;43.30;;
17965;SDS011;9108;53.204;10.424;2022-11-30T07:33:25;157.40;;;43.83;;
17965;SDS011;9108;53.204;10.424;2022-11-30T07:35:52;155.00;;;43.80;;
17965;SDS011;9108;53.204;10.424;2022-11-30T07:38:21;157.00;;;42.85;;
17965;SDS011;9108;53.204;10.424;2022-11-30T07:40:48;155.25;;;44.22;;
17965;SDS011;9108;53.204;10.424;2022-11-30T07:43:15;156.70;;;44.22;;
17965;SDS011;9108;53.204;10.424;2022-11-30T07:45:42;155.80;;;43.67;;
17965;SDS011;9108;53.204;10.424;2022-11-30T07:48:16;168.77;;;44.90;;
17965;SDS011;9108;53.204;10.424;2022-11-30T07:50:43;155.13;;;44.27;;
17965;SDS011;9108;53.204;10.424;2022-11-30T07:53:10;157.30;;;44.27;;
17965;SDS011;9108;53.204;10.424;2022-11-30T07:55:39;164.10;;;45.38;;
17965;SDS011;9108;53.204;10.424;2022-11-30T07:58:06;161.52;;;45.60;;
17965;SDS011;9108;53.204;10.424;2022-11-30T08:00:35;166.05;;;44.92;;
17965;SDS011;9108;53.204;10.424;2022-11-30T08:03:02;168.18;;;44.60;;
17965;SDS011;9108;53.204;10.424;2022-11-30T08:05:29;158.93;;;44.65;;
17965;SDS011;9108;53.204;10.424;2022-11-30T08:07:56;159.68;;;44.25;;
17965;SDS011;9108;53.204;10.424;2022-11-30T08:10:24;150.13;;;43.97;;
17965;SDS011;9108;53.204;10.424;2022-11-30T08:12:53;155.70;;;44.85;;
17965;SDS011;9108;53.204;10.424;2022-11-30T08:15:20;152.30;;;44.35;;
17965;SDS011;9108;53.204;10.424;2022-11-30T08:17:47;157.40;;;44.25;;
17965;SDS011;9108;53.204;10.424;2022-11-30T08:20:19;156.75;;;44.97;;
17965;SDS011;9108;53.204;10.424;2022-11-30T08:22:47;153.05;;;44.47;;
17965;SDS011;9108;53.204;10.424;2022-11-30T08:25:15;152.02;;;43.53;;
17965;SDS011;9108;53.204;10.424;2022-11-30T08:27:43;151.93;;;44.50;;
17965;SDS011;9108;53.204;10.424;2022-11-30T08:30:11;157.57;;;44.53;;
17965;SDS011;9108;53.204;10.424;2022-11-30T08:32:39;161.75;;;45.28;;
17965;SDS011;9108;53.204;10.424;2022-11-30T08:35:06;154.37;;;43.83;;
17965;SDS011;9108;53.204;10.424;2022-11-30T08:37:34;149.98;;;43.83;;
17965;SDS011;9108;53.204;10.424;2022-11-30T08:40:03;156.20;;;44.40;;
17965;SDS011;9108;53.204;10.424;2022-11-30T08:42:31;159.50;;;45.20;;
17965;SDS011;9108;53.204;10.424;2022-11-30T08:44:58;158.98;;;44.95;;
17965;SDS011;9108;53.204;10.424;2022-11-30T08:47:26;155.95;;;44.60;;
17965;SDS011;9108;53.204;10.424;2022-11-30T08:49:55;160.80;;;44.10;;
17965;SDS011;9108;53.204;10.424;2022-11-30T08:52:22;156.02;;;44.30;;
17965;SDS011;9108;53.204;10.424;2022-11-30T08:54:49;155.15;;;44.90;;
17965;SDS011;9108;53.204;10.424;2022-11-30T08:57:17;158.20;;;44.85;;
17965;SDS011;9108;53.204;10.424;2022-11-30T08:59:45;157.63;;;45.10;;
17965;SDS011;9108;53.204;10.424;2022-11-30T09:02:13;156.18;;;44.70;;
17965;SDS011;9108;53.204;10.424;2022-11-30T09:04:43;154.52;;;44.65;;
17965;SDS011;9108;53.204;10.424;2022-11-30T09:07:11;162.37;;;45.90;;
17965;SDS011;9108;53.204;10.424;2022-11-30T09:09:38;161.38;;;45.17;;
17965;SDS011;9108;53.204;10.424;2022-11-30T09:12:06;159.85;;;45.45;;
17965;SDS011;9108;53.204;10.424;2022-11-30T09:14:33;151.60;;;44.55;;
17965;SDS011;9108;53.204;10.424;2022-11-30T09:17:00;157.50;;;44.97;;
17965;SDS011;9108;53.204;10.424;2022-11-30T09:19:27;163.00;;;45.70;;
17965;SDS011;9108;53.204;10.424;2022-11-30T09:21:56;169.85;;;46.47;;
17965;SDS011;9108;53.204;10.424;2022-11-30T09:24:24;176.38;;;46.50;;
17965;SDS011;9108;53.204;10.424;2022-11-30T09:26:53;165.52;;;45.70;;
17965;SDS011;9108;53.204;10.424;2022-11-30T09:29:21;171.20;;;46.63;;
17965;SDS011;9108;53.204;10.424;2022-11-30T09:31:52;170.45;;;46.58;;
17965;SDS011;9108;53.204;10.424;2022-11-30T09:34:35;175.15;;;47.28;;
17965;SDS011;9108;53.204;10.424;2022-11-30T09:37:03;171.32;;;46.17;;
17965;SDS011;9108;53.204;10.424;2022-11-30T09:39:30;170.63;;;47.33;;
17965;SDS011;9108;53.204;10.424;2022-11-30T09:44:45;164.85;;;45.80;;
17965;SDS011;9108;53.204;10.424;2022-11-30T09:47:18;168.25;;;47.58;;
17965;SDS011;9108;53.204;10.424;2022-11-30T09:49:50;168.30;;;47.40;;
17965;SDS011;9108;53.204;10.424;2022-11-30T09:52:19;168.70;;;47.78;;
17965;SDS011;9108;53.204;10.424;2022-11-30T09:54:50;177.70;;;49.42;;
17965;SDS011;9108;53.204;10.424;2022-11-30T09:57:20;175.77;;;48.13;;
17965;SDS011;9108;53.204;10.424;2022-11-30T09:59:51;170.30;;;47.53;;
17965;SDS011;9108;53.204;10.424;2022-11-30T10:02:29;171.80;;;48.63;;
17965;SDS011;9108;53.204;10.424;2022-11-30T10:04:56;179.48;;;49.13;;
17965;SDS011;9108;53.204;10.424;2022-11-30T10:07:31;166.52;;;47.75;;
17965;SDS011;9108;53.204;10.424;2022-11-30T10:10:02;165.57;;;48.25;;
17965;SDS011;9108;53.204;10.424;2022-11-30T10:12:47;178.77;;;47.83;;
17965;SDS011;9108;53.204;10.424;2022-11-30T10:16:00;179.32;;;48.42;;
17965;SDS011;9108;53.204;10.424;2022-11-30T10:18:11;184.38;;;49.45;;
17965;SDS011;9108;53.204;10.424;2022-11-30T10:20:44;181.02;;;49.80;;
17965;SDS011;9108;53.204;10.424;2022-11-30T10:23:18;177.73;;;48.72;;
17965;SDS011;9108;53.204;10.424;2022-11-30T10:25:50;165.68;;;47.17;;
17965;SDS011;9108;53.204;10.424;2022-11-30T10:28:22;170.48;;;48.78;;
17965;SDS011;9108;53.204;10.424;2022-11-30T10:31:10;183.45;;;49.80;;
17965;SDS011;9108;53.204;10.424;2022-11-30T10:33:39;185.57;;;49.90;;
17965;SDS011;9108;53.204;10.424;2022-11-30T10:36:08;188.27;;;51.63;;
17965;SDS011;9108;53.204;10.424;2022-11-30T10:38:40;191.93;;;52.75;;
17965;SDS011;9108;53.204;10.424;2022-11-30T10:41:09;178.48;;;50.58;;
17965;SDS011;9108;53.204;10.424;2022-11-30T10:43:39;179.55;;;50.03;;
17965;SDS011;9108;53.204;10.424;2022-11-30T10:46:14;176.27;;;49.80;;
17965;SDS011;9108;53.204;10.424;2022-11-30T10:48:44;182.95;;;51.08;;
17965;SDS011;9108;53.204;10.424;2022-11-30T10:51:19;188.55;;;51.17;;
17965;SDS011;9108;53.204;10.424;2022-11-30T10:53:48;183.50;;;50.13;;
17965;SDS011;9108;53.204;10.424;2022-11-30T10:56:23;178.82;;;49.85;;
17965;SDS011;9108;53.204;10.424;2022-11-30T10:59:08;181.38;;;49.53;;
17965;SDS011;9108;53.204;10.424;2022-11-30T11:01:58;172.30;;;49.47;;
17965;SDS011;9108;53.204;10.424;2022-11-30T11:04:26;183.50;;;49.33;;
17965;SDS011;9108;53.204;10.424;2022-11-30T11:06:53;175.48;;;50.80;;
17965;SDS011;9108;53.204;10.424;2022-11-30T11:09:26;184.32;;;51.60;;
17965;SDS011;9108;53.204;10.424;2022-11-30T11:12:04;173.63;;;49.30;;
17965;SDS011;9108;53.204;10.424;2022-11-30T11:21:03;163.93;;;46.78;;
17965;SDS011;9108;53.204;10.424;2022-11-30T11:24:07;150.50;;;45.20;;
17965;SDS011;9108;53.204;10.424;2022-11-30T11:33:17;136.13;;;42.03;;
17965;SDS011;9108;53.204;10.424;2022-11-30T11:35:45;129.93;;;41.85;;
17965;SDS011;9108;53.204;10.424;2022-11-30T11:38:20;130.30;;;42.03;;
17965;SDS011;9108;53.204;10.424;2022-11-30T11:40:55;144.82;;;44.40;;
17965;SDS011;9108;53.204;10.424;2022-11-30T11:43:30;139.10;;;44.13;;
17965;SDS011;9108;53.204;10.424;2022-11-30T11:46:00;135.32;;;42.50;;
17965;SDS011;9108;53.204;10.424;2022-11-30T11:51:55;138.55;;;44.67;;
17965;SDS011;9108;53.204;10.424;2022-11-30T11:54:26;129.98;;;41.70;;
17965;SDS011;9108;53.204;10.424;2022-11-30T11:56:55;128.02;;;40.90;;
17965;SDS011;9108;53.204;10.424;2022-11-30T11:59:26;129.07;;;41.20;;
17965;SDS011;9108;53.204;10.424;2022-11-30T12:01:58;123.40;;;40.30;;
17965;SDS011;9108;53.204;10.424;2022-11-30T12:04:32;130.85;;;40.45;;
17965;SDS011;9108;53.204;10.424;2022-11-30T12:07:08;130.90;;;40.87;;
17965;SDS011;9108;53.204;10.424;2022-11-30T12:09:38;130.65;;;41.40;;
17965;SDS011;9108;53.204;10.424;2022-11-30T12:12:08;139.57;;;42.65;;
17965;SDS011;9108;53.204;10.424;2022-11-30T12:14:36;139.00;;;42.45;;
17965;SDS011;9108;53.204;10.424;2022-11-30T12:17:11;149.32;;;44.85;;
17965;SDS011;9108;53.204;10.424;2022-11-30T12:19:43;152.10;;;44.38;;
17965;SDS011;9108;53.204;10.424;2022-11-30T12:22:16;155.75;;;45.83;;
17965;SDS011;9108;53.204;10.424;2022-11-30T12:24:54;152.95;;;46.63;;
17965;SDS011;9108;53.204;10.424;2022-11-30T12:27:26;161.05;;;47.65;;
17965;SDS011;9108;53.204;10.424;2022-11-30T12:30:00;168.93;;;48.10;;
17965;SDS011;9108;53.204;10.424;2022-11-30T12:32:32;165.30;;;46.88;;
17965;SDS011;9108;53.204;10.424;2022-11-30T12:35:11;166.43;;;48.00;;
17965;SDS011;9108;53.204;10.424;2022-11-30T12:37:47;172.48;;;48.38;;
17965;SDS011;9108;53.204;10.424;2022-11-30T12:40:19;176.05;;;48.38;;
17965;SDS011;9108;53.204;10.424;2022-11-30T12:42:51;179.43;;;48.78;;
17965;SDS011;9108;53.204;10.424;2022-11-30T12:45:21;165.93;;;48.97;;
17965;SDS011;9108;53.204;10.424;2022-11-30T12:47:52;177.00;;;49.13;;
17965;SDS011;9108;53.204;10.424;2022-11-30T12:50:24;174.00;;;50.03;;
17965;SDS011;9108;53.204;10.424;2022-11-30T12:52:59;164.77;;;48.00;;
17965;SDS011;9108;53.204;10.424;2022-11-30T12:55:31;158.00;;;45.80;;
17965;SDS011;9108;53.204;10.424;2022-11-30T12:58:04;167.10;;;47.47;;
17965;SDS011;9108;53.204;10.424;2022-11-30T13:00:36;176.80;;;49.67;;
17965;SDS011;9108;53.204;10.424;2022-11-30T13:03:14;186.15;;;51.03;;
17965;SDS011;9108;53.204;10.424;2022-11-30T13:05:44;171.75;;;49.30;;
17965;SDS011;9108;53.204;10.424;2022-11-30T13:08:17;173.33;;;48.23;;
17965;SDS011;9108;53.204;10.424;2022-11-30T13:10:46;173.55;;;49.75;;
17965;SDS011;9108;53.204;10.424;2022-11-30T13:13:16;176.68;;;50.28;;
17965;SDS011;9108;53.204;10.424;2022-11-30T13:15:44;179.80;;;51.50;;
17965;SDS011;9108;53.204;10.424;2022-11-30T13:18:14;202.80;;;56.20;;
17965;SDS011;9108;53.204;10.424;2022-11-30T13:20:43;177.95;;;50.22;;
17965;SDS011;9108;53.204;10.424;2022-11-30T13:23:15;183.57;;;51.72;;
17965;SDS011;9108;53.204;10.424;2022-11-30T13:25:46;183.88;;;51.70;;
17965;SDS011;9108;53.204;10.424;2022-11-30T13:28:15;182.83;;;53.00;;
17965;SDS011;9108;53.204;10.424;2022-11-30T13:30:46;193.68;;;55.38;;
17965;SDS011;9108;53.204;10.424;2022-11-30T13:36:02;182.18;;;51.45;;
17965;SDS011;9108;53.204;10.424;2022-11-30T13:38:31;183.60;;;53.00;;
17965;SDS011;9108;53.204;10.424;2022-11-30T13:40:59;190.48;;;52.88;;
17965;SDS011;9108;53.204;10.424;2022-11-30T13:43:27;192.43;;;52.97;;
17965;SDS011;9108;53.204;10.424;2022-11-30T13:46:03;186.50;;;53.80;;
17965;SDS011;9108;53.204;10.424;2022-11-30T13:48:32;186.00;;;53.85;;
17965;SDS011;9108;53.204;10.424;2022-11-30T13:50:59;195.90;;;54.72;;
17965;SDS011;9108;53.204;10.424;2022-11-30T13:53:27;201.68;;;55.17;;
17965;SDS011;9108;53.204;10.424;2022-11-30T13:56:00;196.73;;;55.37;;
17965;SDS011;9108;53.204;10.424;2022-11-30T13:58:28;204.60;;;57.15;;
17965;SDS011;9108;53.204;10.424;2022-11-30T14:00:59;219.10;;;59.63;;
17965;SDS011;9108;53.204;10.424;2022-11-30T14:03:28;223.63;;;58.53;;
17965;SDS011;9108;53.204;10.424;2022-11-30T14:05:56;225.80;;;60.77;;
17965;SDS011;9108;53.204;10.424;2022-11-30T14:13:47;190.85;;;54.20;;
17965;SDS011;9108;53.204;10.424;2022-11-30T14:16:19;200.52;;;56.22;;
17965;SDS011;9108;53.204;10.424;2022-11-30T14:18:47;206.95;;;56.08;;
17965;SDS011;9108;53.204;10.424;2022-11-30T14:21:21;205.30;;;56.72;;
17965;SDS011;9108;53.204;10.424;2022-11-30T14:23:51;206.32;;;56.10;;
17965;SDS011;9108;53.204;10.424;2022-11-30T14:26:21;193.63;;;55.53;;
17965;SDS011;9108;53.204;10.424;2022-11-30T14:28:52;208.73;;;57.03;;
17965;SDS011;9108;53.204;10.424;2022-11-30T14:31:23;218.95;;;58.72;;
17965;SDS011;9108;53.204;10.424;2022-11-30T14:33:52;225.57;;;58.78;;
17965;SDS011;9108;53.204;10.424;2022-11-30T14:36:20;206.55;;;58.15;;
17965;SDS011;9108;53.204;10.424;2022-11-30T14:38:48;206.25;;;57.13;;
17965;SDS011;9108;53.204;10.424;2022-11-30T14:41:19;220.02;;;58.88;;
17965;SDS011;9108;53.204;10.424;2022-11-30T14:43:57;222.10;;;58.40;;
17965;SDS011;9108;53.204;10.424;2022-11-30T14:46:25;217.13;;;57.50;;
17965;SDS011;9108;53.204;10.424;2022-11-30T14:49:05;231.38;;;58.72;;